createdAt,value
2018-10-18T00:01:48.005Z,19.60
2018-10-18T00:04:15.735Z,19.77
2018-10-18T00:06:43.484Z,21.50
2018-10-18T00:09:11.824Z,18.10
2018-10-18T00:11:39.704Z,18.43
2018-10-18T00:14:07.591Z,19.40
2018-10-18T00:16:35.297Z,18.93
2018-10-18T00:19:04.089Z,19.03
2018-10-18T00:21:31.829Z,19.33
2018-10-18T00:23:59.617Z,18.50
2018-10-18T00:26:27.360Z,19.43
2018-10-18T00:28:55.080Z,17.67
2018-10-18T00:31:22.808Z,17.87
2018-10-18T00:33:50.537Z,18.73
2018-10-18T00:36:18.340Z,19.30
2018-10-18T00:38:45.966Z,18.77
2018-10-18T00:41:14.663Z,19.07
2018-10-18T00:43:42.403Z,19.93
2018-10-18T00:46:10.126Z,19.20
2018-10-18T00:48:37.865Z,20.70
2018-10-18T00:51:05.716Z,17.87
2018-10-18T00:53:33.480Z,18.83
2018-10-18T00:56:01.229Z,18.80
2018-10-18T00:58:29.064Z,17.57
2018-10-18T01:00:56.778Z,18.00
2018-10-18T01:03:24.511Z,17.70
2018-10-18T01:05:52.218Z,17.80
2018-10-18T01:08:19.917Z,17.63
2018-10-18T01:10:47.680Z,19.10
2018-10-18T01:13:16.424Z,17.10
2018-10-18T01:15:44.156Z,17.70
2018-10-18T01:18:11.935Z,19.40
2018-10-18T01:20:39.590Z,17.93
2018-10-18T01:23:07.865Z,17.20
2018-10-18T01:25:35.589Z,19.13
2018-10-18T01:28:03.484Z,18.37
2018-10-18T01:30:31.301Z,18.27
2018-10-18T01:32:59.008Z,17.30
2018-10-18T01:35:27.057Z,18.07
2018-10-18T01:37:54.775Z,18.10
2018-10-18T01:40:22.491Z,16.33
2018-10-18T01:42:50.184Z,17.30
2018-10-18T01:45:17.928Z,16.70
2018-10-18T01:47:45.665Z,17.67
2018-10-18T01:50:13.666Z,16.53
2018-10-18T01:52:41.189Z,17.50
2018-10-18T01:55:09.481Z,18.20
2018-10-18T01:57:37.269Z,18.17
2018-10-18T02:00:07.567Z,17.17
2018-10-18T02:02:35.210Z,17.23
2018-10-18T02:05:03.008Z,18.70
2018-10-18T02:07:30.760Z,17.27
2018-10-18T02:09:58.510Z,15.20
2018-10-18T02:12:26.261Z,17.10
2018-10-18T02:14:53.984Z,20.20
2018-10-18T02:17:21.741Z,17.57
2018-10-18T02:19:49.456Z,17.83
2018-10-18T02:22:18.104Z,17.07
2018-10-18T02:24:45.826Z,18.43
2018-10-18T02:27:13.566Z,17.77
2018-10-18T02:29:41.244Z,18.73
2018-10-18T02:32:08.939Z,19.47
2018-10-18T02:34:36.665Z,17.50
2018-10-18T02:37:05.275Z,17.73
2018-10-18T02:39:34.081Z,19.57
2018-10-18T02:42:01.851Z,18.40
2018-10-18T02:44:29.720Z,21.40
2018-10-18T02:46:57.485Z,22.23
2018-10-18T02:49:25.618Z,20.30
2018-10-18T02:51:53.339Z,21.70
2018-10-18T02:54:21.131Z,20.40
2018-10-18T02:56:48.865Z,18.27
2018-10-18T02:59:16.572Z,21.83
2018-10-18T03:01:45.876Z,21.37
2018-10-18T03:04:13.618Z,20.90
2018-10-18T03:06:41.304Z,20.47
2018-10-18T03:09:10.274Z,21.73
2018-10-18T03:11:38.038Z,22.30
2018-10-18T03:14:06.096Z,25.00
2018-10-18T03:16:34.166Z,23.27
2018-10-18T03:19:01.970Z,24.27
2018-10-18T03:21:29.738Z,21.73
2018-10-18T03:23:57.491Z,23.60
2018-10-18T03:26:25.215Z,23.60
2018-10-18T03:28:52.897Z,20.57
2018-10-18T03:31:21.590Z,21.57
2018-10-18T03:33:49.349Z,20.77
2018-10-18T03:36:17.736Z,18.73
2018-10-18T03:38:45.422Z,20.37
2018-10-18T03:41:13.202Z,21.93
2018-10-18T03:43:41.013Z,20.67
2018-10-18T03:46:08.709Z,19.83
2018-10-18T03:48:36.423Z,20.50
2018-10-18T03:51:04.178Z,20.30
2018-10-18T03:53:31.893Z,21.97
2018-10-18T03:55:59.624Z,19.47
2018-10-18T03:58:27.374Z,20.47
2018-10-18T04:00:55.071Z,20.17
2018-10-18T04:03:22.772Z,19.37
2018-10-18T04:05:50.493Z,20.90
2018-10-18T04:08:18.229Z,19.20
2018-10-18T04:10:46.907Z,19.83
2018-10-18T04:13:14.637Z,20.63
2018-10-18T04:15:42.445Z,22.97
2018-10-18T04:18:10.297Z,22.57
2018-10-18T04:20:38.105Z,20.80
2018-10-18T04:23:05.845Z,20.37
2018-10-18T04:25:33.713Z,21.00
2018-10-18T04:28:03.057Z,22.10
2018-10-18T04:30:31.065Z,20.57
2018-10-18T04:32:58.843Z,19.90
2018-10-18T04:35:26.597Z,22.30
2018-10-18T04:37:54.340Z,20.23
2018-10-18T04:40:23.070Z,21.33
2018-10-18T04:42:50.857Z,21.10
2018-10-18T04:45:18.561Z,20.43
2018-10-18T04:47:46.489Z,20.17
2018-10-18T04:50:14.655Z,19.07
2018-10-18T04:52:42.473Z,21.03
2018-10-18T04:55:10.333Z,20.63
2018-10-18T04:57:38.008Z,21.43
2018-10-18T05:00:06.353Z,20.03
2018-10-18T05:02:34.134Z,20.60
2018-10-18T05:05:14.115Z,21.10
2018-10-18T05:07:42.077Z,19.70
2018-10-18T05:10:10.230Z,18.57
2018-10-18T05:12:38.046Z,19.20
2018-10-18T05:15:06.880Z,19.50
2018-10-18T05:17:34.669Z,19.40
2018-10-18T05:20:02.478Z,19.00
2018-10-18T05:22:30.250Z,19.43
2018-10-18T05:24:58.078Z,19.10
2018-10-18T05:27:25.782Z,20.40
2018-10-18T05:29:53.472Z,20.87
2018-10-18T05:32:21.165Z,18.87
2018-10-18T05:34:48.863Z,20.37
2018-10-18T05:37:16.684Z,19.83
2018-10-18T05:39:44.292Z,19.50
2018-10-18T05:42:12.051Z,21.27
2018-10-18T05:44:39.758Z,21.47
2018-10-18T05:47:08.603Z,21.80
2018-10-18T05:49:36.296Z,21.43
2018-10-18T05:52:04.569Z,21.63
2018-10-18T05:54:32.322Z,21.23
2018-10-18T05:57:00.134Z,20.53
2018-10-18T05:59:28.785Z,21.50
2018-10-18T06:01:56.668Z,20.43
2018-10-18T06:04:24.428Z,21.30
2018-10-18T06:06:52.291Z,20.13
2018-10-18T06:09:26.405Z,22.17
2018-10-18T06:11:54.201Z,21.50
2018-10-18T06:14:21.923Z,21.20
2018-10-18T06:16:49.694Z,19.70
2018-10-18T06:19:17.619Z,21.00
2018-10-18T06:21:45.313Z,20.27
2018-10-18T06:24:13.559Z,20.03
2018-10-18T06:26:41.286Z,20.90
2018-10-18T06:29:09.087Z,20.43
2018-10-18T06:31:36.905Z,20.80
2018-10-18T06:34:05.120Z,20.00
2018-10-18T06:36:32.869Z,20.10
2018-10-18T06:39:01.347Z,16.63
2018-10-18T06:41:29.099Z,16.70
2018-10-18T06:43:56.841Z,16.63
2018-10-18T06:46:24.749Z,17.80
2018-10-18T06:48:52.494Z,16.00
2018-10-18T06:51:21.004Z,18.00
2018-10-18T06:53:48.707Z,17.13
2018-10-18T06:56:16.557Z,16.77
2018-10-18T06:58:44.865Z,18.23
2018-10-18T07:01:12.626Z,17.67
2018-10-18T07:03:40.348Z,17.97
2018-10-18T07:06:08.414Z,20.10
2018-10-18T07:08:36.041Z,17.33
2018-10-18T07:11:03.842Z,17.90
2018-10-18T07:13:31.534Z,16.77
2018-10-18T07:15:59.269Z,16.83
2018-10-18T07:18:27.063Z,17.00
2018-10-18T07:20:54.839Z,15.33
2018-10-18T07:23:22.528Z,20.10
2018-10-18T07:25:50.344Z,19.07
2018-10-18T07:28:18.163Z,19.27
2018-10-18T07:30:45.903Z,17.93
2018-10-18T07:33:13.588Z,30.80
2018-10-18T07:35:42.242Z,28.57
2018-10-18T07:38:10.206Z,17.23
2018-10-18T07:40:37.809Z,18.43
2018-10-18T07:43:05.564Z,18.30
2018-10-18T07:45:33.360Z,19.50
2018-10-18T07:48:01.159Z,17.90
2018-10-18T07:50:28.929Z,19.70
2018-10-18T07:52:56.726Z,19.97
2018-10-18T07:55:24.437Z,20.60
2018-10-18T07:57:52.157Z,19.37
2018-10-18T08:00:19.991Z,17.60
2018-10-18T08:02:47.609Z,21.57
2018-10-18T08:05:15.384Z,20.50
2018-10-18T08:07:43.153Z,18.53
2018-10-18T08:10:13.558Z,20.13
2018-10-18T08:12:41.399Z,19.67
2018-10-18T08:15:11.368Z,20.27
2018-10-18T08:17:39.345Z,22.17
2018-10-18T08:20:08.046Z,20.27
2018-10-18T08:22:36.217Z,18.53
2018-10-18T08:25:04.246Z,21.47
2018-10-18T08:27:32.077Z,17.10
2018-10-18T08:29:59.909Z,19.23
2018-10-18T08:32:27.621Z,19.80
2018-10-18T08:34:56.316Z,19.57
2018-10-18T08:37:24.617Z,19.60
2018-10-18T08:39:52.389Z,17.43
2018-10-18T08:42:20.173Z,18.27
2018-10-18T08:44:47.943Z,20.10
2018-10-18T08:47:15.642Z,17.37
2018-10-18T08:49:43.545Z,17.50
2018-10-18T08:52:11.268Z,18.23
2018-10-18T08:54:39.093Z,18.03
2018-10-18T08:57:06.975Z,17.50
2018-10-18T08:59:34.765Z,17.50
2018-10-18T09:02:02.793Z,16.33
2018-10-18T09:04:30.545Z,16.77
2018-10-18T09:06:58.515Z,16.60
2018-10-18T09:09:26.292Z,17.40
2018-10-18T09:11:54.215Z,14.30
2018-10-18T09:14:22.016Z,16.03
2018-10-18T09:16:49.802Z,19.47
2018-10-18T09:19:17.614Z,15.13
2018-10-18T09:21:46.427Z,16.40
2018-10-18T09:24:14.300Z,17.57
2018-10-18T09:26:42.105Z,17.03
2018-10-18T09:29:09.885Z,17.93
2018-10-18T09:31:38.291Z,18.57
2018-10-18T09:34:06.313Z,16.70
2018-10-18T09:36:34.321Z,20.40
2018-10-18T09:39:03.865Z,17.40
2018-10-18T09:41:31.705Z,14.93
2018-10-18T09:44:03.633Z,16.70
2018-10-18T09:46:32.502Z,16.67
2018-10-18T09:49:01.811Z,19.57
2018-10-18T09:51:29.908Z,16.53
2018-10-18T09:53:58.385Z,14.73
2018-10-18T09:56:26.304Z,13.03
2018-10-18T09:58:55.050Z,16.37
2018-10-18T10:01:28.501Z,15.83
2018-10-18T10:03:56.473Z,14.30
2018-10-18T10:06:24.337Z,13.77
2018-10-18T10:08:52.183Z,15.23
2018-10-18T10:11:19.893Z,17.17
2018-10-18T10:13:47.812Z,15.80
2018-10-18T10:16:16.632Z,13.47
2018-10-18T10:18:44.756Z,14.33
2018-10-18T10:21:12.799Z,15.70
2018-10-18T10:23:41.721Z,12.60
2018-10-18T10:26:09.694Z,16.23
2018-10-18T10:28:37.514Z,14.07
2018-10-18T10:31:05.804Z,13.40
2018-10-18T10:33:33.520Z,14.50
2018-10-18T10:36:01.271Z,14.70
2018-10-18T10:38:29.641Z,15.53
2018-10-18T10:40:57.475Z,13.50
2018-10-18T10:43:25.212Z,14.40
2018-10-18T10:45:53.259Z,13.77
2018-10-18T10:48:21.224Z,13.87
2018-10-18T10:50:49.380Z,12.33
2018-10-18T10:53:17.157Z,11.20
2018-10-18T10:55:45.041Z,11.70
2018-10-18T10:58:12.896Z,12.90
2018-10-18T11:01:19.608Z,13.30
2018-10-18T11:03:48.312Z,11.03
2018-10-18T11:06:16.192Z,11.10
2018-10-18T11:08:43.928Z,10.93
2018-10-18T11:11:12.965Z,10.43
2018-10-18T11:13:41.066Z,10.17
2018-10-18T11:16:08.794Z,9.87
2018-10-18T11:18:37.517Z,11.40
2018-10-18T11:21:07.404Z,12.40
2018-10-18T11:23:35.527Z,10.53
2018-10-18T11:26:03.502Z,8.97
2018-10-18T11:28:31.307Z,10.03
2018-10-18T11:30:59.146Z,10.87
2018-10-18T11:33:26.990Z,9.40
2018-10-18T11:35:54.791Z,8.80
2018-10-18T11:38:22.590Z,8.87
2018-10-18T11:40:50.379Z,10.30
2018-10-18T11:43:18.137Z,10.30
2018-10-18T11:45:45.924Z,9.40
2018-10-18T11:48:14.228Z,10.87
2018-10-18T11:50:42.439Z,10.43
2018-10-18T11:53:10.242Z,10.70
2018-10-18T11:55:38.006Z,10.30
2018-10-18T11:58:06.624Z,12.53
2018-10-18T12:00:34.361Z,10.67
2018-10-18T12:03:02.211Z,9.53
2018-10-18T12:05:29.980Z,10.20
2018-10-18T12:07:57.891Z,9.93
2018-10-18T12:10:25.626Z,10.43
2018-10-18T12:12:53.392Z,9.93
2018-10-18T12:15:21.197Z,10.83
2018-10-18T12:17:48.949Z,10.40
2018-10-18T12:20:17.319Z,10.70
2018-10-18T12:22:45.127Z,10.00
2018-10-18T12:25:13.460Z,9.33
2018-10-18T12:27:41.585Z,8.63
2018-10-18T12:30:10.080Z,9.70
2018-10-18T12:32:38.332Z,10.27
2018-10-18T12:35:07.239Z,9.80
2018-10-18T12:37:35.989Z,10.77
2018-10-18T12:40:05.154Z,11.23
2018-10-18T12:42:33.647Z,8.80
2018-10-18T12:45:01.392Z,7.80
2018-10-18T12:47:29.201Z,8.80
2018-10-18T12:49:57.021Z,9.37
2018-10-18T12:52:24.780Z,8.43
2018-10-18T12:54:53.364Z,7.33
2018-10-18T12:57:21.129Z,8.57
2018-10-18T12:59:50.104Z,8.77
2018-10-18T13:02:18.003Z,7.90
2018-10-18T13:04:45.810Z,7.90
2018-10-18T13:07:13.577Z,7.53
2018-10-18T13:09:41.349Z,7.17
2018-10-18T13:12:09.194Z,8.30
2018-10-18T13:14:36.936Z,6.90
2018-10-18T13:17:05.120Z,8.67
2018-10-18T13:19:32.938Z,8.40
2018-10-18T13:22:00.749Z,8.20
2018-10-18T13:24:28.590Z,9.43
2018-10-18T13:26:56.487Z,10.13
2018-10-18T13:29:24.286Z,9.90
2018-10-18T13:31:52.094Z,8.17
2018-10-18T13:34:21.400Z,10.63
2018-10-18T13:36:49.212Z,10.60
2018-10-18T13:39:16.981Z,11.00
2018-10-18T13:41:44.786Z,12.17
2018-10-18T13:44:13.085Z,9.60
2018-10-18T13:46:40.806Z,10.40
2018-10-18T13:49:08.602Z,11.20
2018-10-18T13:51:36.420Z,10.73
2018-10-18T13:54:04.366Z,11.27
2018-10-18T13:56:32.129Z,22.93
2018-10-18T13:58:59.955Z,10.80
2018-10-18T14:01:27.851Z,10.87
2018-10-18T14:03:55.595Z,10.63
2018-10-18T14:06:23.363Z,9.13
2018-10-18T14:08:51.161Z,9.97
2018-10-18T14:11:19.004Z,10.40
2018-10-18T14:13:46.790Z,11.23
2018-10-18T14:16:15.412Z,10.30
2018-10-18T14:18:43.160Z,11.23
2018-10-18T14:21:10.948Z,9.17
2018-10-18T14:23:38.712Z,10.47
2018-10-18T14:26:06.612Z,11.37
2018-10-18T14:28:34.354Z,10.23
2018-10-18T14:31:02.138Z,9.50
2018-10-18T14:33:30.177Z,10.70
2018-10-18T14:35:57.952Z,10.47
2018-10-18T14:38:25.748Z,9.90
2018-10-18T14:40:53.590Z,10.10
2018-10-18T14:43:21.289Z,11.50
2018-10-18T14:45:49.158Z,10.43
2018-10-18T14:48:17.198Z,10.33
2018-10-18T14:50:45.153Z,9.30
2018-10-18T14:53:13.051Z,11.13
2018-10-18T14:55:40.726Z,9.33
2018-10-18T14:58:08.433Z,7.90
2018-10-18T15:00:36.276Z,10.50
2018-10-18T15:03:04.592Z,8.73
2018-10-18T15:05:32.895Z,7.97
2018-10-18T15:08:01.537Z,9.07
2018-10-18T15:10:29.289Z,8.97
2018-10-18T15:12:57.078Z,8.40
2018-10-18T15:15:24.912Z,9.57
2018-10-18T15:17:52.628Z,8.80
2018-10-18T15:20:20.349Z,8.60
2018-10-18T15:22:48.103Z,9.60
2018-10-18T15:25:15.887Z,10.33
2018-10-18T15:27:43.803Z,11.00
2018-10-18T15:30:12.084Z,11.20
2018-10-18T15:32:39.910Z,11.80
2018-10-18T15:35:09.001Z,11.90
2018-10-18T15:37:36.826Z,14.50
2018-10-18T15:40:05.020Z,12.50
2018-10-18T15:42:32.806Z,12.57
2018-10-18T15:45:00.614Z,12.03
2018-10-18T15:47:29.402Z,12.23
2018-10-18T15:49:57.195Z,12.47
2018-10-18T15:52:24.983Z,12.60
2018-10-18T15:54:52.725Z,12.33
2018-10-18T15:57:20.462Z,11.20
2018-10-18T15:59:48.249Z,13.40
2018-10-18T16:02:16.038Z,12.63
2018-10-18T16:04:43.810Z,13.50
2018-10-18T16:07:11.618Z,12.70
2018-10-18T16:09:39.443Z,12.30
2018-10-18T16:12:07.195Z,14.27
2018-10-18T16:14:34.953Z,13.60
2018-10-18T16:17:02.772Z,12.90
2018-10-18T16:19:30.801Z,12.90
2018-10-18T16:21:59.551Z,14.43
2018-10-18T16:24:27.387Z,13.13
2018-10-18T16:26:55.186Z,14.03
2018-10-18T16:29:23.035Z,13.00
2018-10-18T16:31:50.754Z,13.50
2018-10-18T16:34:18.510Z,12.43
2018-10-18T16:36:46.417Z,12.90
2018-10-18T16:39:14.243Z,14.20
2018-10-18T16:41:42.287Z,12.07
2018-10-18T16:44:10.401Z,12.73
2018-10-18T16:46:38.234Z,14.03
2018-10-18T16:49:06.221Z,14.70
2018-10-18T16:51:34.071Z,16.23
2018-10-18T16:54:02.008Z,15.23
2018-10-18T16:56:29.835Z,16.57
2018-10-18T16:58:57.999Z,16.07
2018-10-18T17:01:25.803Z,16.97
2018-10-18T17:03:53.590Z,16.27
2018-10-18T17:06:21.363Z,17.00
2018-10-18T17:08:49.109Z,18.43
2018-10-18T17:11:16.969Z,18.87
2018-10-18T17:13:44.734Z,17.17
2018-10-18T17:16:12.830Z,18.10
2018-10-18T17:18:40.545Z,18.87
2018-10-18T17:21:08.313Z,18.00
2018-10-18T17:23:36.255Z,19.83
2018-10-18T17:26:04.315Z,20.10
2018-10-18T17:28:31.996Z,114.63
2018-10-18T17:30:59.833Z,20.30
2018-10-18T17:33:27.615Z,19.27
2018-10-18T17:35:55.386Z,19.80
2018-10-18T17:38:23.147Z,21.50
2018-10-18T17:40:51.093Z,22.67
2018-10-18T17:43:18.692Z,21.27
2018-10-18T17:45:46.589Z,20.83
2018-10-18T17:48:14.424Z,21.47
2018-10-18T17:50:42.250Z,22.40
2018-10-18T17:53:10.404Z,21.33
2018-10-18T17:55:38.023Z,19.90
2018-10-18T17:58:06.074Z,21.00
2018-10-18T18:00:33.831Z,21.40
2018-10-18T18:03:01.640Z,21.20
2018-10-18T18:05:29.512Z,21.00
2018-10-18T18:07:57.276Z,21.83
2018-10-18T18:10:25.174Z,53.73
2018-10-18T18:12:53.161Z,37.77
2018-10-18T18:15:20.936Z,22.50
2018-10-18T18:17:48.688Z,22.03
2018-10-18T18:20:17.253Z,21.90
2018-10-18T18:22:45.006Z,22.57
2018-10-18T18:25:12.824Z,22.80
2018-10-18T18:27:40.623Z,20.73
2018-10-18T18:30:11.389Z,21.40
2018-10-18T18:32:39.801Z,24.00
2018-10-18T18:35:07.626Z,22.70
2018-10-18T18:37:35.789Z,20.83
2018-10-18T18:40:05.585Z,22.70
2018-10-18T18:42:33.400Z,25.73
2018-10-18T18:45:07.012Z,23.60
2018-10-18T18:47:35.650Z,23.67
2018-10-18T18:50:03.577Z,23.23
2018-10-18T18:52:31.455Z,27.00
2018-10-18T18:54:59.374Z,25.00
2018-10-18T18:57:27.164Z,24.20
2018-10-18T18:59:55.099Z,24.10
2018-10-18T19:02:22.938Z,26.07
2018-10-18T19:04:50.879Z,25.77
2018-10-18T19:07:18.715Z,26.80
2018-10-18T19:09:46.526Z,23.23
2018-10-18T19:12:14.501Z,23.60
2018-10-18T19:14:42.324Z,22.20
2018-10-18T19:17:10.905Z,24.17
2018-10-18T19:19:38.956Z,24.80
2018-10-18T19:22:07.224Z,25.13
2018-10-18T19:24:34.988Z,24.30
2018-10-18T19:27:02.774Z,24.43
2018-10-18T19:29:30.763Z,24.63
2018-10-18T19:31:59.286Z,25.90
2018-10-18T19:34:27.176Z,25.87
2018-10-18T19:36:54.994Z,24.13
2018-10-18T19:39:23.451Z,26.20
2018-10-18T19:41:51.360Z,25.83
2018-10-18T19:44:19.166Z,27.13
2018-10-18T19:46:46.964Z,25.97
2018-10-18T19:49:14.767Z,26.23
2018-10-18T19:51:42.618Z,27.70
2018-10-18T19:54:10.479Z,27.90
2018-10-18T19:56:38.221Z,28.57
2018-10-18T19:59:06.004Z,27.17
2018-10-18T20:01:33.852Z,28.10
2018-10-18T20:04:01.595Z,26.37
2018-10-18T20:06:29.510Z,29.07
2018-10-18T20:08:57.989Z,64.80
2018-10-18T20:11:25.757Z,38.73
2018-10-18T20:13:53.503Z,28.93
2018-10-18T20:16:21.359Z,29.17
2018-10-18T20:18:49.180Z,27.57
2018-10-18T20:21:17.955Z,27.40
2018-10-18T20:23:45.773Z,28.17
2018-10-18T20:26:13.841Z,28.47
2018-10-18T20:28:42.108Z,25.10
2018-10-18T20:31:10.318Z,27.93
2018-10-18T20:33:39.122Z,25.73
2018-10-18T20:36:07.030Z,24.67
2018-10-18T20:38:34.814Z,27.63
2018-10-18T20:41:02.860Z,29.27
2018-10-18T20:43:30.721Z,26.50
2018-10-18T20:45:58.536Z,28.37
2018-10-18T20:48:26.743Z,29.77
2018-10-18T20:50:54.542Z,29.53
2018-10-18T20:53:22.857Z,31.70
2018-10-18T20:55:50.563Z,28.37
2018-10-18T20:58:18.402Z,35.60
2018-10-18T21:00:46.140Z,32.30
2018-10-18T21:03:13.949Z,30.97
2018-10-18T21:05:41.793Z,30.63
2018-10-18T21:08:09.665Z,31.20
2018-10-18T21:10:38.100Z,29.17
2018-10-18T21:13:05.825Z,28.27
2018-10-18T21:15:33.557Z,29.13
2018-10-18T21:18:01.396Z,30.50
2018-10-18T21:20:29.285Z,32.00
2018-10-18T21:22:57.168Z,29.73
2018-10-18T21:25:24.990Z,28.93
2018-10-18T21:27:52.844Z,28.80
2018-10-18T21:30:20.594Z,31.40
2018-10-18T21:32:48.289Z,29.63
2018-10-18T21:35:16.157Z,30.57
2018-10-18T21:37:43.796Z,31.47
2018-10-18T21:40:12.389Z,29.57
2018-10-18T21:42:40.133Z,32.27
2018-10-18T21:45:08.028Z,32.40
2018-10-18T21:47:35.817Z,31.17
2018-10-18T21:50:03.593Z,31.13
2018-10-18T21:52:31.389Z,32.23
2018-10-18T21:54:59.117Z,31.60
2018-10-18T21:57:26.908Z,30.13
2018-10-18T21:59:55.174Z,29.40
2018-10-18T22:02:22.925Z,30.40
2018-10-18T22:04:50.661Z,30.20
2018-10-18T22:07:18.432Z,30.07
2018-10-18T22:09:46.153Z,33.23
2018-10-18T22:12:13.910Z,32.30
2018-10-18T22:14:41.818Z,28.67
2018-10-18T22:17:09.783Z,32.60
2018-10-18T22:19:37.374Z,31.03
2018-10-18T22:22:05.180Z,31.07
2018-10-18T22:24:32.890Z,30.90
2018-10-18T22:27:00.715Z,31.90
2018-10-18T22:29:28.468Z,31.23
2018-10-18T22:31:56.238Z,28.60
2018-10-18T22:34:23.993Z,30.13
2018-10-18T22:36:51.727Z,30.40
2018-10-18T22:39:19.506Z,27.50
2018-10-18T22:41:47.253Z,31.50
2018-10-18T22:44:14.953Z,29.70
2018-10-18T22:46:43.410Z,30.10
2018-10-18T22:49:11.189Z,30.93
2018-10-18T22:51:38.913Z,30.77
2018-10-18T22:54:06.798Z,32.13
2018-10-18T22:56:34.644Z,33.53
2018-10-18T22:59:02.452Z,31.30
2018-10-18T23:01:30.416Z,31.67
2018-10-18T23:03:58.254Z,35.73
2018-10-18T23:06:26.010Z,35.33
2018-10-18T23:08:53.784Z,35.50
2018-10-18T23:11:21.501Z,32.40
2018-10-18T23:13:49.210Z,33.57
2018-10-18T23:16:16.912Z,33.07
2018-10-18T23:18:44.646Z,30.80
2018-10-18T23:21:12.426Z,31.60
2018-10-18T23:23:41.140Z,33.40
2018-10-18T23:26:08.850Z,32.80
2018-10-18T23:28:36.570Z,32.33
2018-10-18T23:31:04.537Z,31.97
2018-10-18T23:33:32.297Z,32.33
2018-10-18T23:36:00.740Z,34.90
2018-10-18T23:38:28.436Z,34.40
2018-10-18T23:40:56.145Z,36.10
2018-10-18T23:43:23.909Z,33.07
2018-10-18T23:45:53.491Z,35.60
2018-10-18T23:48:22.029Z,34.90
2018-10-18T23:50:49.925Z,33.37
2018-10-18T23:53:17.665Z,34.00
2018-10-18T23:55:45.498Z,36.60
2018-10-18T23:58:13.319Z,36.70
